createdAt,value
2023-05-08T00:01:33.394Z,7.28
2023-05-08T00:06:36.347Z,7.05
2023-05-08T00:11:39.358Z,7.00
2023-05-08T00:16:43.781Z,6.98
2023-05-08T00:21:46.760Z,6.95
2023-05-08T00:26:49.762Z,6.90
2023-05-08T00:31:54.070Z,6.73
2023-05-08T00:36:57.591Z,6.75
2023-05-08T00:42:00.615Z,6.70
2023-05-08T00:47:04.944Z,6.65
2023-05-08T00:52:09.020Z,6.54
2023-05-08T00:57:11.969Z,6.44
2023-05-08T01:02:16.929Z,6.39
2023-05-08T01:07:20.100Z,6.31
2023-05-08T01:12:37.938Z,6.54
2023-05-08T01:17:51.591Z,6.43
2023-05-08T01:23:25.973Z,6.30
2023-05-08T01:28:55.959Z,6.31
2023-05-08T01:34:07.265Z,6.25
2023-05-08T01:39:18.590Z,6.21
2023-05-08T01:44:29.403Z,6.11
2023-05-08T01:49:39.807Z,5.97
2023-05-08T01:54:51.480Z,5.93
2023-05-08T01:59:57.228Z,5.82
2023-05-08T02:05:04.711Z,5.70
2023-05-08T02:10:11.415Z,5.73
2023-05-08T02:15:17.296Z,5.66
2023-05-08T02:20:23.116Z,5.57
2023-05-08T02:25:27.301Z,5.68
2023-05-08T02:30:30.739Z,5.51
2023-05-08T02:35:35.554Z,5.45
2023-05-08T02:40:42.768Z,5.38
2023-05-08T02:45:50.892Z,5.25
2023-05-08T02:51:00.477Z,5.22
2023-05-08T02:56:11.191Z,5.21
2023-05-08T03:01:22.845Z,5.12
2023-05-08T03:06:28.174Z,5.18
2023-05-08T03:11:38.746Z,4.99
2023-05-08T03:16:45.917Z,4.95
2023-05-08T03:21:53.002Z,5.14
2023-05-08T03:26:57.864Z,5.20
2023-05-08T03:32:03.310Z,5.28
2023-05-08T03:37:08.414Z,5.27
2023-05-08T03:42:21.081Z,5.22
2023-05-08T03:47:26.142Z,5.31
2023-05-08T03:52:31.400Z,5.39
2023-05-08T03:57:41.675Z,5.46
2023-05-08T04:02:51.814Z,5.56
2023-05-08T04:08:04.430Z,5.63
2023-05-08T04:13:13.319Z,5.71
2023-05-08T04:18:26.606Z,5.84
2023-05-08T04:23:31.277Z,7.17
2023-05-08T04:28:35.478Z,8.87
2023-05-08T04:33:39.157Z,9.98
2023-05-08T04:38:43.735Z,9.77
2023-05-08T04:43:47.785Z,10.50
2023-05-08T04:48:50.973Z,10.33
2023-05-08T04:53:55.378Z,10.63
2023-05-08T04:58:59.089Z,10.48
2023-05-08T05:04:02.210Z,11.22
2023-05-08T05:09:06.669Z,12.18
2023-05-08T05:14:10.152Z,11.52
2023-05-08T05:19:13.226Z,11.83
2023-05-08T05:24:18.002Z,11.51
2023-05-08T05:29:21.100Z,12.23
2023-05-08T05:34:24.128Z,11.81
2023-05-08T05:39:28.515Z,12.04
2023-05-08T05:44:31.552Z,12.66
2023-05-08T05:49:35.074Z,12.77
2023-05-08T05:54:41.442Z,12.05
2023-05-08T05:59:45.125Z,13.02
2023-05-08T06:04:50.039Z,11.93
2023-05-08T06:09:54.494Z,11.62
2023-05-08T06:14:57.908Z,11.56
2023-05-08T06:20:01.050Z,11.61
2023-05-08T06:25:07.125Z,11.38
2023-05-08T06:30:10.831Z,11.64
2023-05-08T06:35:18.383Z,11.65
2023-05-08T06:40:24.043Z,11.75
2023-05-08T06:45:27.009Z,11.81
2023-05-08T06:50:30.006Z,12.92
2023-05-08T06:55:34.313Z,12.62
2023-05-08T07:00:37.546Z,13.59
2023-05-08T07:05:40.392Z,12.85
2023-05-08T07:10:44.649Z,13.59
2023-05-08T07:15:47.605Z,14.35
2023-05-08T07:20:50.593Z,14.73
2023-05-08T07:25:55.403Z,14.66
2023-05-08T07:30:58.276Z,15.24
2023-05-08T07:36:01.253Z,14.75
2023-05-08T07:41:05.731Z,14.20
2023-05-08T07:46:08.622Z,13.15
2023-05-08T07:51:12.240Z,14.78
2023-05-08T07:56:16.533Z,14.54
2023-05-08T08:01:19.465Z,15.83
2023-05-08T08:06:22.404Z,15.26
2023-05-08T08:11:26.687Z,16.24
2023-05-08T08:16:29.681Z,15.02
2023-05-08T08:21:32.829Z,15.11
2023-05-08T08:26:37.124Z,15.26
2023-05-08T08:31:40.213Z,16.13
2023-05-08T08:36:43.327Z,15.80
2023-05-08T08:41:47.743Z,15.39
2023-05-08T08:46:52.856Z,16.06
2023-05-08T08:52:01.215Z,16.61
2023-05-08T08:57:08.270Z,16.48
2023-05-08T09:02:17.407Z,16.80
2023-05-08T09:07:20.906Z,15.71
2023-05-08T09:12:25.279Z,16.52
2023-05-08T09:17:28.235Z,16.83
2023-05-08T09:22:31.625Z,16.05
2023-05-08T09:27:36.780Z,16.50
2023-05-08T09:32:41.780Z,16.99
2023-05-08T09:37:44.881Z,16.70
2023-05-08T09:42:50.463Z,17.71
2023-05-08T09:47:53.451Z,17.82
2023-05-08T09:52:56.611Z,18.69
2023-05-08T09:58:01.228Z,18.56
2023-05-08T10:03:04.876Z,18.18
2023-05-08T10:08:21.498Z,18.33
2023-05-08T10:13:26.209Z,18.92
2023-05-08T10:18:31.801Z,18.36
2023-05-08T10:23:35.405Z,18.50
2023-05-08T10:28:44.254Z,18.92
2023-05-08T10:33:51.627Z,19.22
2023-05-08T10:38:55.225Z,18.63
2023-05-08T10:44:03.332Z,18.14
2023-05-08T10:49:15.983Z,18.86
2023-05-08T10:54:27.997Z,18.10
2023-05-08T10:59:36.388Z,18.26
2023-05-08T11:04:39.495Z,18.03
2023-05-08T11:09:49.383Z,18.63
2023-05-08T11:15:01.979Z,18.84
2023-05-08T11:20:07.289Z,18.59
2023-05-08T11:25:11.928Z,18.43
2023-05-08T11:30:24.492Z,19.05
2023-05-08T11:35:54.605Z,19.54
2023-05-08T11:41:05.708Z,19.41
2023-05-08T11:46:16.587Z,19.94
2023-05-08T11:51:20.433Z,19.01
2023-05-08T11:56:23.374Z,19.72
2023-05-08T12:01:27.655Z,19.52
2023-05-08T12:06:31.900Z,19.47
2023-05-08T12:11:34.798Z,19.84
2023-05-08T12:16:39.715Z,19.90
2023-05-08T12:21:48.090Z,20.07
2023-05-08T12:26:51.300Z,19.73
2023-05-08T12:31:56.730Z,20.35
2023-05-08T12:37:04.258Z,20.48
2023-05-08T12:42:07.284Z,20.90
2023-05-08T12:47:12.318Z,19.95
2023-05-08T12:52:15.263Z,19.83
2023-05-08T12:57:19.627Z,19.56
2023-05-08T13:02:26.455Z,19.55
2023-05-08T13:07:33.360Z,20.22
2023-05-08T13:12:36.342Z,20.42
2023-05-08T13:17:40.690Z,20.98
2023-05-08T13:22:43.654Z,20.58
2023-05-08T13:27:46.626Z,20.38
2023-05-08T13:32:52.574Z,20.77
2023-05-08T13:37:55.820Z,20.20
2023-05-08T13:42:58.730Z,20.55
2023-05-08T13:48:03.030Z,20.22
2023-05-08T13:53:06.174Z,20.26
2023-05-08T13:58:09.148Z,20.72
2023-05-08T14:03:13.430Z,20.43
2023-05-08T14:08:16.383Z,20.19
2023-05-08T14:13:19.392Z,20.24
2023-05-08T14:18:23.669Z,20.17
2023-05-08T14:23:26.758Z,20.40
2023-05-08T14:28:29.691Z,20.48
2023-05-08T14:33:33.982Z,20.46
2023-05-08T14:38:36.924Z,20.77
2023-05-08T14:43:39.812Z,20.86
2023-05-08T14:48:44.074Z,20.22
2023-05-08T14:53:47.041Z,19.80
2023-05-08T14:58:50.004Z,20.09
2023-05-08T15:03:54.450Z,19.60
2023-05-08T15:08:57.341Z,19.91
2023-05-08T15:14:01.799Z,19.84
2023-05-08T15:19:06.129Z,20.15
2023-05-08T15:24:09.930Z,20.25
2023-05-08T15:29:12.880Z,19.44
2023-05-08T15:34:17.170Z,19.34
2023-05-08T15:39:20.087Z,19.50
2023-05-08T15:44:24.756Z,19.52
2023-05-08T15:49:29.190Z,19.33
2023-05-08T15:54:32.103Z,19.21
2023-05-08T15:59:37.546Z,19.12
2023-05-08T16:04:41.795Z,18.82
2023-05-08T16:09:44.730Z,18.82
2023-05-08T16:14:47.727Z,19.15
2023-05-08T16:19:52.003Z,18.49
2023-05-08T16:24:55.024Z,18.33
2023-05-08T16:29:57.955Z,18.17
2023-05-08T16:35:02.502Z,18.44
2023-05-08T16:40:06.720Z,18.01
2023-05-08T16:45:11.898Z,17.92
2023-05-08T16:50:16.214Z,18.08
2023-05-08T16:55:19.244Z,17.69
2023-05-08T17:00:22.816Z,17.68
2023-05-08T17:05:27.131Z,17.18
2023-05-08T17:10:30.265Z,17.31
2023-05-08T17:15:33.190Z,17.22
2023-05-08T17:20:40.955Z,17.05
2023-05-08T17:25:44.070Z,17.01
2023-05-08T17:30:48.219Z,16.84
2023-05-08T17:35:52.478Z,16.83
2023-05-08T17:40:56.402Z,16.71
2023-05-08T17:45:59.362Z,16.65
2023-05-08T17:51:03.989Z,16.29
2023-05-08T17:56:07.751Z,16.20
2023-05-08T18:01:10.726Z,16.08
2023-05-08T18:06:17.065Z,16.02
2023-05-08T18:11:21.436Z,15.83
2023-05-08T18:16:24.482Z,15.79
2023-05-08T18:21:28.946Z,15.70
2023-05-08T18:26:32.248Z,15.66
2023-05-08T18:31:35.328Z,15.34
2023-05-08T18:36:39.723Z,15.10
2023-05-08T18:41:42.623Z,14.94
2023-05-08T18:46:45.625Z,14.68
2023-05-08T18:51:49.936Z,14.43
2023-05-08T18:56:52.848Z,14.39
2023-05-08T19:01:55.914Z,14.39
2023-05-08T19:07:00.817Z,14.09
2023-05-08T19:12:04.096Z,14.02
2023-05-08T19:17:07.558Z,14.06
2023-05-08T19:22:11.859Z,13.80
2023-05-08T19:27:14.782Z,13.64
2023-05-08T19:32:17.713Z,13.59
2023-05-08T19:37:21.944Z,13.47
2023-05-08T19:42:24.849Z,13.41
2023-05-08T19:47:27.850Z,13.39
2023-05-08T19:52:32.099Z,13.30
2023-05-08T19:57:34.952Z,13.20
2023-05-08T20:02:38.044Z,13.12
2023-05-08T20:07:42.444Z,13.01
2023-05-08T20:12:45.409Z,12.90
2023-05-08T20:17:48.378Z,12.85
2023-05-08T20:22:52.632Z,12.67
2023-05-08T20:27:55.667Z,12.57
2023-05-08T20:33:04.514Z,12.59
2023-05-08T20:38:09.240Z,12.50
2023-05-08T20:43:12.410Z,12.31
2023-05-08T20:48:15.368Z,12.17
2023-05-08T20:53:19.623Z,12.13
2023-05-08T20:58:22.546Z,11.95
2023-05-08T21:03:25.545Z,11.99
2023-05-08T21:08:29.828Z,11.71
2023-05-08T21:13:32.950Z,11.56
2023-05-08T21:18:36.482Z,11.35
2023-05-08T21:23:40.930Z,11.32
2023-05-08T21:28:43.850Z,11.21
2023-05-08T21:33:46.825Z,11.01
2023-05-08T21:38:52.037Z,10.93
2023-05-08T21:43:54.914Z,10.76
2023-05-08T21:48:57.815Z,10.62
2023-05-08T21:54:02.479Z,10.42
2023-05-08T21:59:05.414Z,10.50
2023-05-08T22:04:08.330Z,10.40
2023-05-08T22:09:12.623Z,10.27
2023-05-08T22:14:16.100Z,10.18
2023-05-08T22:19:19.030Z,10.05
2023-05-08T22:24:23.459Z,9.83
2023-05-08T22:29:26.466Z,9.71
2023-05-08T22:34:29.361Z,9.60
2023-05-08T22:39:33.799Z,9.34
2023-05-08T22:44:37.740Z,9.21
2023-05-08T22:49:41.972Z,9.07
2023-05-08T22:54:46.295Z,8.92
2023-05-08T22:59:49.144Z,8.94
2023-05-08T23:04:52.061Z,8.96
2023-05-08T23:09:56.407Z,8.96
2023-05-08T23:14:59.478Z,8.95
2023-05-08T23:20:02.519Z,8.79
2023-05-08T23:25:10.328Z,8.90
2023-05-08T23:30:16.693Z,8.80
2023-05-08T23:35:19.832Z,8.65
2023-05-08T23:40:24.380Z,8.58
2023-05-08T23:45:27.265Z,8.54
2023-05-08T23:50:30.193Z,8.41
2023-05-08T23:55:36.168Z,8.22
